createdAt,value
2017-05-03T17:40:12.399Z,1023.57
2017-05-03T17:41:13.182Z,1023.71
2017-05-03T17:42:13.934Z,1023.58
2017-05-03T17:43:14.824Z,1023.62
2017-05-03T17:44:15.494Z,1023.61
2017-05-03T17:45:16.166Z,1023.71
2017-05-03T17:46:16.822Z,1023.68
2017-05-03T17:47:17.786Z,1023.68
2017-05-03T17:48:18.463Z,1023.7
2017-05-03T17:49:19.169Z,1023.71
2017-05-03T17:50:19.837Z,1023.69
2017-05-03T17:51:20.547Z,1023.69
2017-05-03T17:52:21.226Z,1023.72
2017-05-03T17:53:22.159Z,1023.69
2017-05-03T17:54:22.937Z,1023.6
2017-05-03T17:55:23.610Z,1023.82
2017-05-03T17:56:24.283Z,1023.75
2017-05-03T17:57:25.032Z,1023.75
2017-05-03T17:58:25.700Z,1023.74
2017-05-03T17:59:26.715Z,1023.82
2017-05-03T18:00:28.420Z,1023.76
2017-05-03T18:01:29.125Z,1023.76
2017-05-03T18:02:29.874Z,1023.79
2017-05-03T18:03:30.535Z,1023.78
2017-05-03T18:04:32.288Z,1023.86
2017-05-03T18:05:32.976Z,1023.81
2017-05-03T18:06:33.668Z,1023.83
2017-05-03T18:07:34.358Z,1023.81
2017-05-03T18:08:35.488Z,1023.86
2017-05-03T18:09:36.787Z,1023.88
2017-05-03T18:10:38.421Z,1023.95
2017-05-03T18:11:39.078Z,1023.93
2017-05-03T18:12:39.829Z,1023.95
2017-05-03T18:13:40.551Z,1023.98
2017-05-03T18:14:41.327Z,1023.96
2017-05-03T18:15:42.470Z,1024.02
2017-05-03T18:16:44.402Z,1024.11
2017-05-03T18:17:45.130Z,1024.01
2017-05-03T18:18:45.861Z,1024.02
2017-05-03T18:19:46.530Z,1024.05
2017-05-03T18:20:47.345Z,1024.01
2017-05-03T18:21:48.101Z,1024.04
2017-05-03T18:22:48.780Z,1024.08
2017-05-03T18:23:49.515Z,1024.15
2017-05-03T18:24:50.473Z,1024.14
2017-05-03T18:25:51.231Z,1024.06
2017-05-03T18:26:51.960Z,1024.11
2017-05-03T18:27:52.723Z,1024.2
2017-05-03T18:28:53.681Z,1024.1
2017-05-03T18:29:54.558Z,1024.14
2017-05-03T18:30:55.323Z,1024.15
2017-05-03T18:31:56.064Z,1024.05
2017-05-03T18:32:56.757Z,1024.07
2017-05-03T18:33:57.470Z,1024.09
2017-05-03T18:34:58.258Z,1024.04
2017-05-03T18:35:58.989Z,1024.09
2017-05-03T18:36:59.843Z,1024.09
2017-05-03T18:38:00.738Z,1024.05
2017-05-03T18:39:01.471Z,1024.05
2017-05-03T18:40:02.219Z,1024.09
2017-05-03T18:41:02.994Z,1024.07
2017-05-03T18:42:03.830Z,1024.09
2017-05-03T18:43:04.595Z,1024.11
2017-05-03T18:44:05.498Z,1024.05
2017-05-03T18:45:06.209Z,1024.06
2017-05-03T18:46:07.039Z,1024.06
2017-05-03T18:47:07.985Z,1024.07
2017-05-03T18:48:08.794Z,1024.16
2017-05-03T18:49:09.480Z,1024.07
2017-05-03T18:50:10.170Z,1024.06
2017-05-03T18:51:10.850Z,1024.06
2017-05-03T18:52:11.519Z,1024.14
2017-05-03T18:53:12.193Z,1024.07
2017-05-03T18:54:12.864Z,1024.11
2017-05-03T18:55:13.537Z,1024.06
2017-05-03T18:56:14.209Z,1024.03
2017-05-03T18:57:14.922Z,1024.11
2017-05-03T18:58:15.600Z,1024.11
2017-05-03T18:59:16.270Z,1024.05
2017-05-03T19:00:16.955Z,1023.96
2017-05-03T19:01:17.614Z,1024.08
2017-05-03T19:02:18.301Z,1024.08
2017-05-03T19:03:18.973Z,1024.11
2017-05-03T19:04:19.651Z,1023.97
2017-05-03T19:05:20.321Z,1024.1
2017-05-03T19:06:21.012Z,1024.13
2017-05-03T19:07:21.714Z,1024.13
2017-05-03T19:08:22.475Z,1024.09
2017-05-03T19:09:23.176Z,1024.09
2017-05-03T19:10:23.856Z,1024.11
2017-05-03T19:11:24.556Z,1024.3
2017-05-03T19:12:25.243Z,1024.08
2017-05-03T19:13:25.926Z,1024.16
2017-05-03T19:14:26.614Z,1024.12
2017-05-03T19:15:27.300Z,1024.12
2017-05-03T19:16:27.979Z,1024.13
2017-05-03T19:17:28.649Z,1024.18
2017-05-03T19:18:29.333Z,1024.13
2017-05-03T19:19:29.991Z,1024.17
2017-05-03T19:20:30.673Z,1024.15
2017-05-03T19:21:31.334Z,1024.03
2017-05-03T19:22:32.048Z,1024.17
2017-05-03T19:23:32.770Z,1024.12
2017-05-03T19:24:33.452Z,1024.17
2017-05-03T19:25:34.147Z,1024.25
2017-05-03T19:26:34.807Z,1024.21
2017-05-03T19:27:35.535Z,1024.27
2017-05-03T19:28:36.201Z,1024.2
2017-05-03T19:29:36.883Z,1024.19
2017-05-03T19:30:37.558Z,1024.18
2017-05-03T19:31:38.225Z,1024.28
2017-05-03T19:32:38.890Z,1024.18
2017-05-03T19:33:39.611Z,1024.16
2017-05-03T19:34:40.288Z,1024.16
2017-05-03T19:35:41.252Z,1024.21
2017-05-03T19:36:43.402Z,1024.22
2017-05-03T19:37:44.150Z,1024.27
2017-05-03T19:38:45.174Z,1024.23
2017-05-03T19:39:45.854Z,1024.17
2017-05-03T19:40:46.583Z,1024.18
2017-05-03T19:41:47.275Z,1024.17
2017-05-03T19:42:47.955Z,1024.19
2017-05-03T19:43:48.696Z,1024.27
2017-05-03T19:44:49.885Z,1024.19
2017-05-03T19:45:51.018Z,1024.25
2017-05-03T19:46:51.769Z,1024.24
2017-05-03T19:47:52.520Z,1024.25
2017-05-03T19:48:53.247Z,1024.21
2017-05-03T19:49:54.074Z,1024.27
2017-05-03T19:50:54.893Z,1024.2
2017-05-03T19:51:55.737Z,1024.23
2017-05-03T19:52:56.735Z,1024.27
2017-05-03T19:53:57.621Z,1024.26
2017-05-03T19:54:58.411Z,1024.23
2017-05-03T19:55:59.107Z,1024.2
2017-05-03T19:56:59.989Z,1024.22
2017-05-03T19:58:00.910Z,1024.21
2017-05-03T19:59:01.752Z,1024.23
2017-05-03T20:00:02.539Z,1024.22
2017-05-03T20:01:03.357Z,1024.29
2017-05-03T20:02:04.255Z,1024.27
2017-05-03T20:03:05.571Z,1024.15
2017-05-03T20:04:05.775Z,1024.22
2017-05-03T20:05:06.797Z,1024.27
2017-05-03T20:06:07.518Z,1024.28
2017-05-03T20:07:08.432Z,1024.25
2017-05-03T20:08:09.260Z,1024.2
2017-05-03T20:09:17.955Z,1024.28
2017-05-03T20:10:45.035Z,1024.22
2017-05-03T20:11:45.668Z,1024.18
2017-05-03T20:12:46.389Z,1024.22
2017-05-03T20:13:47.374Z,1024.25
2017-05-03T20:14:48.137Z,1024.17
2017-05-03T20:15:48.822Z,1024.26
2017-05-03T20:16:49.508Z,1024.25
2017-05-03T20:17:51.896Z,1024.23
2017-05-03T20:18:53.623Z,1024.21
2017-05-03T20:19:54.339Z,1024.21
2017-05-03T20:20:55.115Z,1024.23
2017-05-03T20:21:56.212Z,1024.17
2017-05-03T20:22:56.916Z,1024.21
2017-05-03T20:23:57.608Z,1024.2
2017-05-03T20:24:58.447Z,1024.17
2017-05-03T20:25:59.401Z,1024.22
2017-05-03T20:27:00.128Z,1024.19
2017-05-03T20:28:00.917Z,1024.19
2017-05-03T20:29:01.693Z,1024.17
2017-05-03T20:30:04.161Z,1024.17
2017-05-03T20:31:08.879Z,1024.17
2017-05-03T20:32:09.778Z,1024.18
2017-05-03T20:33:10.551Z,1024.3
2017-05-03T20:34:11.232Z,1024.23
2017-05-03T20:35:12.034Z,1024.23
2017-05-03T20:36:14.262Z,1024.14
2017-05-03T20:37:14.844Z,1024.11
2017-05-03T20:38:15.529Z,1024.2
2017-05-03T20:39:16.221Z,1024.21
2017-05-03T20:40:17.011Z,1024.16
2017-05-03T20:41:17.689Z,1024.14
2017-05-03T20:42:18.394Z,1024.18
2017-05-03T20:43:19.318Z,1024.17
2017-05-03T20:44:20.169Z,1024.17
2017-05-03T20:45:20.878Z,1024.21
2017-05-03T20:46:21.551Z,1024.21
2017-05-03T20:47:22.226Z,1024.22
2017-05-03T20:48:22.901Z,1024.24
2017-05-03T20:49:23.623Z,1024.19
2017-05-03T20:50:24.322Z,1024.27
2017-05-03T20:51:24.973Z,1024.23
2017-05-03T20:52:25.641Z,1024.22
2017-05-03T20:53:26.307Z,1024.17
2017-05-03T20:54:27.002Z,1024.21
2017-05-03T20:55:27.679Z,1024.22
2017-05-03T20:56:28.377Z,1024.2
2017-05-03T20:57:29.046Z,1024.16
2017-05-03T20:58:29.724Z,1024.14
2017-05-03T20:59:30.395Z,1024.15
2017-05-03T21:00:31.101Z,1024.18
2017-05-03T21:01:31.782Z,1024.19
2017-05-03T21:02:32.479Z,1024.14
2017-05-03T21:03:33.167Z,1024.15
2017-05-03T21:04:33.853Z,1024.21
2017-05-03T21:05:34.568Z,1024.13
2017-05-03T21:06:35.256Z,1024.13
2017-05-03T21:07:35.977Z,1024.18
2017-05-03T21:08:36.644Z,1024.11
2017-05-03T21:09:37.316Z,1024.09
2017-05-03T21:10:37.987Z,1024.16
2017-05-03T21:11:38.663Z,1024.13
2017-05-03T21:12:39.342Z,1024.1
2017-05-03T21:13:40.016Z,1024.13
2017-05-03T21:14:40.782Z,1024.12
2017-05-03T21:15:41.462Z,1024.18
2017-05-03T21:16:42.131Z,1024.08
2017-05-03T21:17:42.794Z,1024.08
2017-05-03T21:18:43.500Z,1024.19
2017-05-03T21:19:44.240Z,1024.12
2017-05-03T21:20:44.911Z,1024.19
2017-05-03T21:21:45.612Z,1024.16
2017-05-03T21:22:46.301Z,1024.14
2017-05-03T21:23:47.017Z,1024.19
2017-05-03T21:24:47.737Z,1024.14
2017-05-03T21:25:48.660Z,1024.14
2017-05-03T21:26:49.329Z,1024.07
2017-05-03T21:27:50.011Z,1024.06
2017-05-03T21:28:50.910Z,1024.15
2017-05-03T21:29:52.811Z,1024.11
2017-05-03T21:30:53.483Z,1024.1
2017-05-03T21:31:54.162Z,1024.06
2017-05-03T21:32:55.492Z,1024.09
2017-05-03T21:33:56.222Z,1024.03
2017-05-03T21:34:56.970Z,1024.07
2017-05-03T21:35:57.767Z,1024.03
2017-05-03T21:36:59.285Z,1024.06
2017-05-03T21:38:00.492Z,1024.09
2017-05-03T21:39:01.161Z,1024.08
2017-05-03T21:40:01.838Z,1024.11
2017-05-03T21:41:02.624Z,1024.1
2017-05-03T21:42:03.366Z,1024.03
2017-05-03T21:43:04.314Z,1024.09
2017-05-03T21:44:04.855Z,1024.13
2017-05-03T21:45:07.513Z,1024.04
2017-05-03T21:46:09.330Z,1024.07
2017-05-03T21:47:10.008Z,1024.05
2017-05-03T21:48:11.258Z,1024.07
2017-05-03T21:49:11.933Z,1024.05
2017-05-03T21:50:12.635Z,1024.05
2017-05-03T21:51:13.326Z,1024.08
2017-05-03T21:52:14.001Z,1024.07
2017-05-03T21:53:14.681Z,1024.07
2017-05-03T21:54:15.355Z,1024.08
2017-05-03T21:55:16.013Z,1024.04
2017-05-03T21:56:16.681Z,1024.07
2017-05-03T21:57:17.369Z,1024.03
2017-05-03T21:58:18.040Z,1024.04
2017-05-03T21:59:18.719Z,1024.06
2017-05-03T22:00:19.384Z,1024
2017-05-03T22:01:20.049Z,1024.02
2017-05-03T22:02:20.730Z,1024.02
2017-05-03T22:03:21.407Z,1024.01
2017-05-03T22:04:22.072Z,1023.95
2017-05-03T22:05:22.733Z,1024
2017-05-03T22:06:23.407Z,1023.96
2017-05-03T22:07:24.062Z,1023.92
2017-05-03T22:08:24.752Z,1023.94
2017-05-03T22:09:25.421Z,1023.92
2017-05-03T22:10:26.094Z,1023.89
2017-05-03T22:11:26.768Z,1023.88
2017-05-03T22:12:27.451Z,1023.89
2017-05-03T22:13:28.164Z,1023.91
2017-05-03T22:14:28.854Z,1023.89
2017-05-03T22:15:29.563Z,1023.89
2017-05-03T22:16:30.234Z,1023.91
2017-05-03T22:17:30.907Z,1023.9
2017-05-03T22:18:31.576Z,1023.91
2017-05-03T22:19:32.241Z,1023.9
2017-05-03T22:20:32.923Z,1023.82
